createdAt,value
2023-02-15T00:04:12.859Z,99.19
2023-02-15T00:09:12.804Z,99.71
2023-02-15T00:14:12.695Z,99.99
2023-02-15T00:19:12.666Z,99.99
2023-02-15T00:24:12.623Z,99.99
2023-02-15T00:29:12.527Z,99.99
2023-02-15T00:34:12.484Z,99.99
2023-02-15T00:39:12.442Z,99.99
2023-02-15T00:44:12.338Z,99.99
2023-02-15T00:49:12.295Z,99.99
2023-02-15T00:54:12.248Z,99.99
2023-02-15T00:59:12.159Z,99.99
2023-02-15T01:04:12.142Z,99.99
2023-02-15T01:09:29.051Z,99.99
2023-02-15T01:14:21.462Z,99.99
2023-02-15T01:19:21.385Z,99.99
2023-02-15T01:24:21.320Z,99.99
2023-02-15T01:29:21.263Z,99.99
2023-02-15T01:34:21.191Z,99.59
2023-02-15T01:39:21.145Z,99.48
2023-02-15T01:44:21.073Z,99.38
2023-02-15T01:49:20.965Z,99.27
2023-02-15T01:54:20.951Z,99.17
2023-02-15T01:59:20.888Z,99.22
2023-02-15T02:04:20.799Z,99.32
2023-02-15T02:09:20.734Z,99.32
2023-02-15T02:14:20.688Z,99.43
2023-02-15T02:19:20.593Z,99.43
2023-02-15T02:24:20.554Z,99.53
2023-02-15T02:29:20.483Z,99.99
2023-02-15T02:34:20.469Z,99.99
2023-02-15T02:39:20.337Z,99.99
2023-02-15T02:44:20.284Z,99.99
2023-02-15T02:49:20.223Z,99.99
2023-02-15T02:54:20.160Z,99.99
2023-02-15T02:59:20.088Z,99.99
2023-02-15T03:04:20.054Z,99.84
2023-02-15T03:09:19.981Z,99.32
2023-02-15T03:14:19.917Z,99.01
2023-02-15T03:19:19.842Z,98.80
2023-02-15T03:24:19.788Z,98.85
2023-02-15T03:29:19.700Z,98.95
2023-02-15T03:34:20.468Z,98.74
2023-02-15T03:39:19.584Z,98.63
2023-02-15T03:44:19.549Z,98.74
2023-02-15T03:49:19.470Z,98.63
2023-02-15T03:54:19.390Z,98.43
2023-02-15T03:59:19.334Z,98.43
2023-02-15T04:04:19.272Z,98.11
2023-02-15T04:09:19.192Z,97.91
2023-02-15T04:14:19.151Z,97.91
2023-02-15T04:19:19.075Z,97.80
2023-02-15T04:24:19.042Z,98.16
2023-02-15T04:29:18.931Z,98.05
2023-02-15T04:34:18.894Z,98.16
2023-02-15T04:39:18.804Z,98.05
2023-02-15T04:44:18.751Z,98.16
2023-02-15T04:49:18.709Z,97.95
2023-02-15T04:54:18.622Z,97.53
2023-02-15T04:59:18.518Z,97.64
2023-02-15T05:04:18.531Z,97.74
2023-02-15T05:09:18.412Z,97.89
2023-02-15T05:14:18.358Z,97.89
2023-02-15T05:19:34.386Z,97.47
2023-02-15T05:24:26.783Z,97.32
2023-02-15T05:29:26.744Z,97.11
2023-02-15T05:34:26.653Z,97.16
2023-02-15T05:39:26.614Z,97.58
2023-02-15T05:44:26.532Z,97.47
2023-02-15T05:49:26.525Z,97.78
2023-02-15T05:54:26.423Z,97.68
2023-02-15T05:59:26.357Z,97.78
2023-02-15T06:04:26.287Z,97.27
2023-02-15T06:09:26.247Z,97.37
2023-02-15T06:14:26.137Z,97.68
2023-02-15T06:19:27.305Z,97.68
2023-02-15T06:24:26.037Z,97.16
2023-02-15T06:29:25.996Z,96.95
2023-02-15T06:34:25.919Z,97.27
2023-02-15T06:39:25.837Z,97.68
2023-02-15T06:44:25.803Z,97.47
2023-02-15T06:49:25.720Z,97.58
2023-02-15T06:54:25.642Z,97.27
2023-02-15T06:59:25.597Z,97.47
2023-02-15T07:04:25.603Z,98.10
2023-02-15T07:09:25.497Z,98.21
2023-02-15T07:14:26.698Z,98.31
2023-02-15T07:19:25.352Z,98.26
2023-02-15T07:24:25.274Z,98.05
2023-02-15T07:29:25.196Z,97.95
2023-02-15T07:34:25.113Z,98.05
2023-02-15T07:39:25.097Z,98.05
2023-02-15T07:44:25.030Z,98.16
2023-02-15T07:49:26.308Z,97.70
2023-02-15T07:54:24.877Z,97.49
2023-02-15T07:59:24.808Z,96.97
2023-02-15T08:04:24.763Z,96.76
2023-02-15T08:09:24.690Z,96.34
2023-02-15T08:14:24.600Z,95.82
2023-02-15T08:19:24.551Z,94.94
2023-02-15T08:24:24.506Z,95.52
2023-02-15T08:29:24.485Z,84.34
2023-02-15T08:34:24.382Z,75.09
2023-02-15T08:39:24.320Z,70.58
2023-02-15T08:44:24.250Z,68.02
2023-02-15T08:49:24.217Z,65.89
2023-02-15T08:54:24.083Z,64.26
2023-02-15T08:59:24.107Z,63.21
2023-02-15T09:04:23.966Z,62.36
2023-02-15T09:09:23.945Z,61.79
2023-02-15T09:14:23.844Z,59.66
2023-02-15T09:19:23.796Z,57.35
2023-02-15T09:24:23.692Z,57.66
2023-02-15T09:29:23.689Z,57.93
2023-02-15T09:34:23.566Z,55.84
2023-02-15T09:39:23.501Z,56.79
2023-02-15T09:44:23.431Z,56.04
2023-02-15T09:49:23.380Z,56.35
2023-02-15T09:54:23.297Z,54.74
2023-02-15T09:59:23.248Z,53.14
2023-02-15T10:04:23.182Z,53.29
2023-02-15T10:09:23.133Z,51.87
2023-02-15T10:14:23.034Z,52.17
2023-02-15T10:19:23.003Z,51.16
2023-02-15T10:24:22.889Z,52.20
2023-02-15T10:29:22.852Z,50.12
2023-02-15T10:34:22.762Z,50.93
2023-02-15T10:39:22.726Z,50.98
2023-02-15T10:44:22.640Z,50.50
2023-02-15T10:49:22.573Z,49.21
2023-02-15T10:54:22.506Z,47.78
2023-02-15T10:59:22.472Z,47.50
2023-02-15T11:04:22.371Z,48.83
2023-02-15T11:09:22.290Z,47.92
2023-02-15T11:14:22.242Z,48.74
2023-02-15T11:19:22.244Z,49.87
2023-02-15T11:24:22.103Z,51.77
2023-02-15T11:29:22.075Z,53.02
2023-02-15T11:34:22.028Z,55.74
2023-02-15T11:39:21.922Z,57.01
2023-02-15T11:44:21.844Z,56.99
2023-02-15T11:49:21.784Z,54.85
2023-02-15T11:54:21.699Z,51.70
2023-02-15T11:59:22.057Z,52.73
2023-02-15T12:04:21.761Z,52.69
2023-02-15T12:09:23.533Z,51.32
2023-02-15T12:14:21.434Z,50.73
2023-02-15T12:19:21.404Z,51.19
2023-02-15T12:24:21.323Z,50.59
2023-02-15T12:29:21.274Z,51.21
2023-02-15T12:34:21.171Z,51.52
2023-02-15T12:39:21.151Z,52.89
2023-02-15T12:44:21.041Z,53.55
2023-02-15T12:49:21.340Z,54.92
2023-02-15T12:54:23.536Z,59.26
2023-02-15T12:59:23.167Z,63.39
2023-02-15T13:04:22.238Z,65.28
2023-02-15T13:09:20.776Z,66.34
2023-02-15T13:14:20.676Z,65.96
2023-02-15T13:19:20.606Z,67.29
2023-02-15T13:24:20.736Z,67.29
2023-02-15T13:29:20.479Z,67.60
2023-02-15T13:34:20.374Z,67.36
2023-02-15T13:39:20.368Z,66.64
2023-02-15T13:44:20.244Z,65.94
2023-02-15T13:49:20.215Z,64.40
2023-02-15T13:54:20.124Z,64.51
2023-02-15T13:59:20.196Z,64.92
2023-02-15T14:04:20.060Z,65.56
2023-02-15T14:09:19.955Z,65.66
2023-02-15T14:14:19.854Z,66.00
2023-02-15T14:19:19.873Z,66.31
2023-02-15T14:24:19.744Z,66.82
2023-02-15T14:29:19.665Z,66.72
2023-02-15T14:34:19.592Z,66.82
2023-02-15T14:39:19.486Z,66.72
2023-02-15T14:44:19.476Z,66.41
2023-02-15T14:49:19.387Z,66.61
2023-02-15T14:54:19.339Z,66.92
2023-02-15T14:59:19.260Z,67.97
2023-02-15T15:04:19.215Z,68.18
2023-02-15T15:09:19.142Z,68.38
2023-02-15T15:14:19.088Z,68.08
2023-02-15T15:19:19.008Z,68.41
2023-02-15T15:24:18.931Z,69.03
2023-02-15T15:29:18.859Z,69.54
2023-02-15T15:34:18.811Z,70.09
2023-02-15T15:39:18.708Z,70.91
2023-02-15T15:44:18.648Z,71.25
2023-02-15T15:49:18.602Z,71.80
2023-02-15T15:54:18.546Z,72.20
2023-02-15T15:59:18.460Z,72.85
2023-02-15T16:04:18.404Z,73.40
2023-02-15T16:09:18.358Z,73.71
2023-02-15T16:14:18.295Z,74.57
2023-02-15T16:19:18.203Z,75.18
2023-02-15T16:24:18.131Z,75.73
2023-02-15T16:29:18.055Z,76.28
2023-02-15T16:34:18.042Z,76.93
2023-02-15T16:39:17.935Z,77.48
2023-02-15T16:44:17.881Z,78.03
2023-02-15T16:49:17.808Z,79.10
2023-02-15T16:54:17.785Z,79.30
2023-02-15T16:59:17.636Z,79.96
2023-02-15T17:04:17.629Z,80.51
2023-02-15T17:09:17.526Z,81.27
2023-02-15T17:14:17.482Z,81.68
2023-02-15T17:19:17.508Z,81.93
2023-02-15T17:24:17.363Z,82.48
2023-02-15T17:29:17.252Z,82.79
2023-02-15T17:34:17.215Z,83.25
2023-02-15T17:39:17.158Z,83.97
2023-02-15T17:44:17.111Z,84.21
2023-02-15T17:49:17.012Z,84.05
2023-02-15T17:54:17.050Z,84.66
2023-02-15T17:59:16.842Z,85.94
2023-02-15T18:04:16.843Z,86.57
2023-02-15T18:09:16.750Z,86.60
2023-02-15T18:14:16.681Z,86.81
2023-02-15T18:19:16.629Z,86.60
2023-02-15T18:24:16.568Z,87.12
2023-02-15T18:29:16.460Z,87.47
2023-02-15T18:34:16.464Z,87.16
2023-02-15T18:39:16.341Z,87.30
2023-02-15T18:44:16.274Z,87.87
2023-02-15T18:49:16.230Z,88.48
2023-02-15T18:54:16.190Z,89.21
2023-02-15T18:59:16.088Z,89.56
2023-02-15T19:04:16.035Z,88.63
2023-02-15T19:09:15.977Z,89.50
2023-02-15T19:14:15.894Z,90.33
2023-02-15T19:19:16.033Z,90.17
2023-02-15T19:24:15.945Z,90.79
2023-02-15T19:29:15.895Z,91.72
2023-02-15T19:34:15.829Z,90.48
2023-02-15T19:39:15.808Z,90.37
2023-02-15T19:44:15.659Z,91.45
2023-02-15T19:49:15.599Z,91.45
2023-02-15T19:54:15.989Z,91.14
2023-02-15T19:59:15.939Z,90.62
2023-02-15T20:04:15.405Z,91.18
2023-02-15T20:09:15.157Z,91.39
2023-02-15T20:14:15.205Z,91.64
2023-02-15T20:19:15.071Z,91.95
2023-02-15T20:24:15.004Z,91.58
2023-02-15T20:29:14.940Z,92.45
2023-02-15T20:34:16.028Z,93.60
2023-02-15T20:39:15.015Z,93.39
2023-02-15T20:44:15.471Z,93.29
2023-02-15T20:49:14.730Z,93.64
2023-02-15T20:54:14.632Z,93.85
2023-02-15T20:59:15.790Z,94.06
2023-02-15T21:04:16.106Z,94.31
2023-02-15T21:09:14.590Z,94.62
2023-02-15T21:14:16.681Z,94.93
2023-02-15T21:19:14.925Z,94.62
2023-02-15T21:24:15.217Z,94.41
2023-02-15T21:29:14.421Z,94.62
2023-02-15T21:34:14.295Z,94.35
2023-02-15T21:39:14.021Z,94.49
2023-02-15T21:44:13.963Z,95.43
2023-02-15T21:49:13.902Z,97.10
2023-02-15T21:54:13.875Z,96.37
2023-02-15T21:59:13.768Z,95.33
2023-02-15T22:04:13.784Z,95.58
2023-02-15T22:09:13.684Z,95.58
2023-02-15T22:14:13.638Z,96.00
2023-02-15T22:19:13.549Z,96.73
2023-02-15T22:24:13.485Z,96.00
2023-02-15T22:29:13.389Z,95.79
2023-02-15T22:34:13.312Z,95.73
2023-02-15T22:39:13.309Z,96.15
2023-02-15T22:44:13.197Z,96.50
2023-02-15T22:49:13.125Z,96.67
2023-02-15T22:54:13.056Z,96.88
2023-02-15T22:59:12.978Z,96.36
2023-02-15T23:04:12.948Z,95.78
2023-02-15T23:09:12.865Z,95.88
2023-02-15T23:14:12.820Z,95.61
2023-02-15T23:19:12.712Z,96.34
2023-02-15T23:24:12.686Z,96.59
2023-02-15T23:29:12.614Z,97.53
2023-02-15T23:34:12.553Z,97.80
2023-02-15T23:39:12.456Z,97.38
2023-02-15T23:44:12.434Z,97.49
2023-02-15T23:49:12.431Z,97.49
2023-02-15T23:54:13.232Z,97.38
2023-02-15T23:59:12.243Z,96.97
